M I D A S
Marine Information and Data Acquisition System
Tripno 1715 of the Zeeleeuw from 2009-06-24 06:47:07 to 2009-06-24 15:11:18
Back to CruiseResearch ActivitiesStationsMapUnderway DataData graphs

EquipmentUnitsComment
TimeDGPSUTC
LatitudeDGPSDM.mWGS84
LongitudeDGPSDM.mWGS84
TemperatureSBE03/SBE38deg celciusITS90
ConductivitySBE21S/mITS90
SalinitySBE21 Practical Salinity Units
ChlorophylAChelsea fluorimeterg/lCalibrated in Aceton
Missing or incorrect values are displayed as -999
Sea surface data collected by the RV Zeeleeuw from 2009-06-24 06:44:21 to 2009-06-24 15:18:51
Time Latitude Longitude Temperature Conductivity Salinity ChlorophylA
2009-06-24 06:45:27 51°13.682 2°55.9 21.3431 0.067112 0.359234 1.506764
2009-06-24 06:46:27 51°13.694 2°55.807 21.3894 0.067112 0.359247 1.506764
2009-06-24 06:47:26 51°13.694 2°55.742 21.3816 0.067112 0.359265 1.506764
2009-06-24 06:48:24 51°13.729 2°55.746 21.3946 0.067112 0.359284 1.506764
2009-06-24 06:49:23 51°13.775 2°55.691 21.3286 0.067112 0.359271 1.506764
2009-06-24 06:50:23 51°13.839 2°55.637 21.2981 0.067112 0.359296 1.506764
2009-06-24 06:51:23 51°13.899 2°55.658 21.3936 0.067112 0.359321 1.506764
2009-06-24 06:52:23 51°13.937 2°55.662 21.3896 0.067112 0.359345 1.506764
2009-06-24 06:53:24 51°13.956 2°55.649 21.3812 0.067112 0.359345 1.506764
2009-06-24 06:54:23 51°13.967 2°55.637 21.3858 0.067112 0.359358 1.506764
2009-06-24 06:55:23 51°13.961 2°55.638 21.399 0.067112 0.35937 1.506764
2009-06-24 06:56:23 51°13.955 2°55.638 21.4081 0.067112 0.359382 1.506764
2009-06-24 06:57:23 51°13.951 2°55.639 21.4124 0.067112 0.359395 1.506764
2009-06-24 06:58:24 51°13.949 2°55.64 21.4187 0.067112 0.359413 1.506764
2009-06-24 06:59:23 51°13.951 2°55.635 21.4219 0.067112 0.359432 1.506764
2009-06-24 07:00:23 51°13.963 2°55.622 21.4424 0.067112 0.359444 1.506764
2009-06-24 07:01:23 51°14.007 2°55.569 21.4382 0.067112 0.359457 1.506764
2009-06-24 07:02:23 51°14.102 2°55.453 21.4388 0.067112 0.359475 1.506764
2009-06-24 07:03:23 51°14.202 2°55.335 21.4574 0.067112 0.359487 1.506764
2009-06-24 07:04:23 51°14.277 2°55.224 21.4802 0.067112 0.3595 1.506764
2009-06-24 07:05:23 51°14.375 2°55.025 21.4072 0.067112 0.359506 1.506764
2009-06-24 07:06:24 51°14.511 2°54.815 21.4369 0.067112 0.359518 1.506764
2009-06-24 07:07:24 51°14.658 2°54.622 21.3985 0.067112 0.359531 1.506764
2009-06-24 07:08:24 51°14.805 2°54.438 21.4226 0.067112 0.359549 1.506764
2009-06-24 07:09:24 51°14.928 2°54.206 21.4068 0.067009 0.358987 1.506764
2009-06-24 07:10:24 51°15.061 2°54.002 21.4168 0.067112 0.359568 1.506764
2009-06-24 07:11:24 51°15.217 2°53.854 21.4316 0.067009 0.359012 1.506764
2009-06-24 07:12:24 51°15.377 2°53.714 21.4342 0.067009 0.35903 1.506764
2009-06-24 07:13:24 51°15.531 2°53.55 21.4145 0.067009 0.359043 1.506764
2009-06-24 07:14:24 51°15.683 2°53.369 21.4303 0.067009 0.359061 1.506764
2009-06-24 07:15:24 51°15.835 2°53.189 21.4589 0.067009 0.359073 1.506764
2009-06-24 07:16:24 51°15.992 2°53.024 21.4648 0.067009 0.359086 1.506764
2009-06-24 07:17:24 51°16.152 2°52.872 21.4705 0.067009 0.359111 1.750532
2009-06-24 07:18:24 51°16.311 2°52.715 19.3343 3.568871 24.707923 2.342541
2009-06-24 07:19:24 51°16.468 2°52.552 18.3874 3.911048 28.420044 2.690782
2009-06-24 07:20:24 51°16.629 2°52.407 18.0831 4.037578 29.971535 2.725606
2009-06-24 07:21:24 51°16.796 2°52.299 17.9163 4.074506 30.465437 2.76043
2009-06-24 07:22:24 51°16.965 2°52.216 17.8128 4.120047 30.963213 2.655957
2009-06-24 07:23:24 51°17.136 2°52.159 17.7673 4.151378 31.295847 2.725606
2009-06-24 07:24:24 51°17.308 2°52.103 17.7129 4.168393 31.483756 2.830078
2009-06-24 07:25:24 51°17.474 2°52.03 17.6601 4.180948 31.629088 2.969374
2009-06-24 07:26:24 51°17.606 2°51.83 17.6146 4.191013 31.7538 3.073846
2009-06-24 07:27:24 51°17.718 2°51.587 17.6021 4.200558 31.862606 3.213142
2009-06-24 07:28:24 51°17.811 2°51.315 17.615 4.200974 31.876745 3.352439
2009-06-24 07:29:24 51°17.897 2°51.033 17.5972 4.19755 31.851499 3.526559
2009-06-24 07:30:24 51°17.984 2°50.747 17.6049 4.19423 31.824008 3.631031
2009-06-24 07:31:24 51°18.07 2°50.459 17.6031 4.192362 31.805075 3.596207
2009-06-24 07:32:24 51°18.161 2°50.171 17.6138 4.189664 31.783484 3.596207
2009-06-24 07:33:24 51°18.246 2°49.879 17.612 4.196408 31.833716 3.596207
2009-06-24 07:34:24 51°18.334 2°49.592 17.6172 4.201907 31.879651 3.491735
2009-06-24 07:35:24 51°18.422 2°49.308 17.6219 4.204916 31.900752 3.456911
2009-06-24 07:36:24 51°18.514 2°49.024 17.6242 4.205954 31.907035 3.387263
2009-06-24 07:37:24 51°18.605 2°48.738 17.6313 4.202115 31.870783 3.422087
2009-06-24 07:38:24 51°18.698 2°48.45 17.6348 4.196616 31.821121 3.456911
2009-06-24 07:39:24 51°18.804 2°48.183 17.6306 4.193814 31.79617 3.456911
2009-06-24 07:40:24 51°18.949 2°47.993 17.6194 4.193296 31.796142 3.456911
2009-06-24 07:41:24 51°19.1 2°47.81 17.5966 4.194956 31.822667 3.422087
2009-06-24 07:42:24 51°19.247 2°47.622 17.5854 4.194334 31.831131 3.387263
2009-06-24 07:43:24 51°19.401 2°47.44 17.5724 4.191636 31.815152 3.352439
2009-06-24 07:44:24 51°19.554 2°47.26 17.5201 4.191636 31.837023 3.317614
2009-06-24 07:45:24 51°19.705 2°47.075 17.4754 4.189873 31.859625 3.213142
2009-06-24 07:46:24 51°19.866 2°46.999 17.465 4.186761 31.857655 3.143494
2009-06-24 07:47:24 51°20.012 2°47.092 17.4601 4.182507 31.834071 3.10867
2009-06-24 07:48:24 51°20.152 2°47.207 17.4676 4.176801 31.784358 3.073846
2009-06-24 07:49:24 51°20.302 2°47.301 17.4886 4.168709 31.708159 3.10867
2009-06-24 07:50:24 51°20.461 2°47.368 17.4955 4.159371 31.619594 3.143494
2009-06-24 07:51:24 51°20.619 2°47.428 17.5034 4.150553 31.533648 3.178318
2009-06-24 07:52:24 51°20.786 2°47.443 17.491 4.146195 31.495485 3.213142
2009-06-24 07:53:24 51°20.96 2°47.387 17.4552 4.147337 31.517554 3.213142
2009-06-24 07:54:24 51°21.131 2°47.284 17.4079 4.150761 31.578276 3.178318
2009-06-24 07:55:24 51°21.3 2°47.163 17.333 4.155741 31.660475 3.143494
2009-06-24 07:56:24 51°21.46 2°46.999 17.2894 4.163316 31.775658 3.10867
2009-06-24 07:57:24 51°21.604 2°46.782 17.2588 4.171305 31.874585 3.039022
2009-06-24 07:58:24 51°21.741 2°46.556 17.2402 4.178879 31.961957 2.969374
2009-06-24 07:59:24 51°21.872 2°46.316 17.2311 4.183444 32.014248 2.969374
2009-06-24 08:00:24 51°22.009 2°46.087 17.2061 4.186868 32.053024 2.93455
2009-06-24 08:01:24 51°22.141 2°45.869 17.1571 4.189359 32.089577 2.93455
2009-06-24 08:02:24 51°22.272 2°45.65 17.0828 4.204508 32.271009 2.899726
2009-06-24 08:03:24 51°22.404 2°45.431 17.0211 4.216545 32.434157 2.864902
2009-06-24 08:04:24 51°22.534 2°45.21 16.9903 4.22329 32.530997 2.864902
2009-06-24 08:05:24 51°22.661 2°44.99 16.9547 4.228997 32.610686 2.864902
2009-06-24 08:06:24 51°22.794 2°44.772 16.9103 4.234186 32.684763 2.864902
2009-06-24 08:07:24 51°22.929 2°44.545 16.8792 4.240308 32.766394 2.899726
2009-06-24 08:08:24 51°23.064 2°44.316 16.8702 4.244148 32.821884 2.864902
2009-06-24 08:09:24 51°23.197 2°44.087 16.8784 4.244978 32.832345 2.899726
2009-06-24 08:10:24 51°23.331 2°43.857 16.8649 4.245082 32.835216 2.899726
2009-06-24 08:11:24 51°23.466 2°43.625 16.8613 4.246535 32.851061 2.899726
2009-06-24 08:12:24 51°23.603 2°43.399 16.8617 4.246327 32.853879 2.899726
2009-06-24 08:13:24 51°23.75 2°43.203 16.8585 4.246535 32.852379 2.93455
2009-06-24 08:14:24 51°23.909 2°43.068 16.8477 4.247573 32.867277 2.899726
2009-06-24 08:15:24 51°24.075 2°42.942 16.8403 4.248714 32.886378 2.899726
2009-06-24 08:16:24 51°24.238 2°42.813 16.8244 4.251205 32.915837 2.899726
2009-06-24 08:17:24 51°24.398 2°42.682 16.8038 4.255148 32.965163 2.93455
2009-06-24 08:18:24 51°24.555 2°42.547 16.7959 4.256912 32.992357 2.93455
2009-06-24 08:19:24 51°24.711 2°42.417 16.7944 4.257743 33.007502 2.93455
2009-06-24 08:20:24 51°24.868 2°42.28 16.7846 4.257639 33.008593 2.93455
2009-06-24 08:21:24 51°25.024 2°42.141 16.7714 4.26013 33.040126 2.93455
2009-06-24 08:22:24 51°25.181 2°42.003 16.7529 4.264903 33.092803 2.969374
2009-06-24 08:23:24 51°25.338 2°41.869 16.7324 4.269158 33.143692 2.969374
2009-06-24 08:24:24 51°25.497 2°41.733 16.6993 4.274658 33.210791 2.969374
2009-06-24 08:25:24 51°25.654 2°41.601 16.6535 4.280055 33.281776 2.93455
2009-06-24 08:26:24 51°25.811 2°41.471 16.595 4.286594 33.389755 3.004198
2009-06-24 08:27:24 51°25.966 2°41.332 16.5541 4.29033 33.461478 3.039022
2009-06-24 08:28:24 51°26.123 2°41.196 16.5373 4.292095 33.503961 3.073846
2009-06-24 08:29:24 51°26.282 2°41.062 16.5316 4.291991 33.515267 3.073846
2009-06-24 08:30:24 51°26.442 2°40.92 16.5278 4.292095 33.522961 3.10867
2009-06-24 08:31:24 51°26.599 2°40.782 16.539 4.29085 33.512767 3.10867
2009-06-24 08:32:24 51°26.758 2°40.642 16.5424 4.289708 33.496017 3.073846
2009-06-24 08:33:24 51°26.911 2°40.506 16.5415 4.289708 33.490591 3.10867
2009-06-24 08:34:24 51°27.071 2°40.371 16.5254 4.290435 33.504393 3.10867
2009-06-24 08:35:24 51°27.23 2°40.234 16.5128 4.291888 33.526582 3.10867
2009-06-24 08:36:24 51°27.388 2°40.108 16.4406 4.294482 33.568961 3.10867
2009-06-24 08:37:24 51°27.543 2°39.984 16.3318 4.298635 33.676942 3.143494
2009-06-24 08:38:24 51°27.694 2°39.865 16.2525 4.301334 33.784372 3.213142
2009-06-24 08:39:24 51°27.843 2°39.744 16.198 4.302788 33.854425 3.213142
2009-06-24 08:40:24 51°27.991 2°39.618 16.1591 4.303619 33.906061 3.213142
2009-06-24 08:41:24 51°28.143 2°39.492 16.1379 4.304138 33.937714 3.213142
2009-06-24 08:42:24 51°28.299 2°39.427 16.1189 4.305073 33.961947 3.213142
2009-06-24 08:43:24 51°28.455 2°39.455 16.1089 4.305592 33.983934 3.178318
2009-06-24 08:44:24 51°28.596 2°39.547 16.0984 4.306837 34.003293 3.178318
2009-06-24 08:45:24 51°28.689 2°39.733 16.0923 4.307875 34.019433 3.247966
2009-06-24 08:46:24 51°28.75 2°39.956 16.0912 4.309432 34.039466 3.247966
2009-06-24 08:47:24 51°28.826 2°40.172 16.0876 4.311404 34.05968 3.247966
2009-06-24 08:48:24 51°28.904 2°40.391 16.0773 4.313065 34.084144 3.247966
2009-06-24 08:49:24 51°28.984 2°40.608 16.0698 4.31431 34.100051 3.247966
2009-06-24 08:50:24 51°29.063 2°40.822 16.0525 4.315452 34.118549 3.247966
2009-06-24 08:51:24 51°29.141 2°41.038 16.0371 4.316075 34.135974 3.213142
2009-06-24 08:52:24 51°29.219 2°41.249 16.0145 4.316179 34.153735 3.213142
2009-06-24 08:53:24 51°29.296 2°41.457 15.9962 4.315971 34.168055 3.213142
2009-06-24 08:54:24 51°29.374 2°41.664 15.989 4.315038 34.171735 3.213142
2009-06-24 08:55:24 51°29.449 2°41.876 15.9758 4.314415 34.173955 3.213142
2009-06-24 08:56:24 51°29.52 2°42.084 15.971 4.313377 34.175314 3.213142
2009-06-24 08:57:24 51°29.596 2°42.293 15.9662 4.312547 34.175698 3.213142
2009-06-24 08:58:24 51°29.669 2°42.503 15.9633 4.312028 34.173914 3.247966
2009-06-24 08:59:24 51°29.744 2°42.712 15.9586 4.311717 34.173266 3.247966
2009-06-24 09:00:24 51°29.819 2°42.926 15.9564 4.31151 34.171426 3.247966
2009-06-24 09:01:24 51°29.893 2°43.134 15.9639 4.310887 34.169426 3.247966
2009-06-24 09:02:24 51°29.966 2°43.341 15.955 4.310576 34.16737 3.28279
2009-06-24 09:03:24 51°30.038 2°43.544 15.9682 4.310057 34.159955 3.28279
2009-06-24 09:04:24 51°30.111 2°43.747 15.9805 4.309226 34.144155 3.28279
2009-06-24 09:05:24 51°30.184 2°43.948 15.9968 4.3085 34.125769 3.28279
2009-06-24 09:06:24 51°30.261 2°44.152 16.0201 4.307669 34.103672 3.28279
2009-06-24 09:07:24 51°30.332 2°44.356 16.0308 4.30715 34.082248 3.247966
2009-06-24 09:08:24 51°30.401 2°44.555 16.0427 4.306527 34.070432 3.28279
2009-06-24 09:09:24 51°30.474 2°44.753 16.0532 4.306216 34.055776 3.28279
2009-06-24 09:10:24 51°30.547 2°44.959 16.056 4.305697 34.043491 3.247966
2009-06-24 09:11:24 51°30.622 2°45.168 16.0484 4.305074 34.035887 3.28279
2009-06-24 09:12:24 51°30.698 2°45.376 16.0479 4.304763 34.038729 3.28279
2009-06-24 09:13:24 51°30.77 2°45.582 16.0462 4.304036 34.031606 3.28279
2009-06-24 09:14:24 51°30.846 2°45.79 16.0459 4.30331 34.02728 3.317614
2009-06-24 09:15:24 51°30.92 2°45.993 16.056 4.302272 34.016007 3.317614
2009-06-24 09:16:24 51°30.992 2°46.197 16.0706 4.300923 33.994999 3.317614
2009-06-24 09:17:24 51°31.065 2°46.404 16.0832 4.299781 33.973744 3.317614
2009-06-24 09:18:24 51°31.139 2°46.603 16.0938 4.298951 33.954558 3.317614
2009-06-24 09:19:24 51°31.213 2°46.807 16.1066 4.297601 33.934286 3.352439
2009-06-24 09:20:24 51°31.288 2°47.013 16.1168 4.296563 33.913991 3.352439
2009-06-24 09:21:24 51°31.362 2°47.22 16.1319 4.295422 33.894184 3.352439
2009-06-24 09:22:24 51°31.435 2°47.427 16.1346 4.294487 33.875527 3.352439
2009-06-24 09:23:24 51°31.507 2°47.64 16.1431 4.29345 33.861516 3.352439
2009-06-24 09:24:24 51°31.58 2°47.851 16.1404 4.291997 33.847318 3.352439
2009-06-24 09:25:24 51°31.653 2°48.058 16.1404 4.290544 33.835201 3.317614
2009-06-24 09:26:24 51°31.726 2°48.271 16.145 4.288987 33.819398 3.317614
2009-06-24 09:27:24 51°31.797 2°48.482 16.1483 4.287223 33.801076 3.317614
2009-06-24 09:28:24 51°31.87 2°48.692 16.1613 4.285666 33.784587 3.317614
2009-06-24 09:29:24 51°31.941 2°48.898 16.1732 4.284006 33.758199 3.28279
2009-06-24 09:30:24 51°32.016 2°49.107 16.1796 4.282656 33.735954 3.28279
2009-06-24 09:31:24 51°32.092 2°49.316 16.196 4.281411 33.716707 3.28279
2009-06-24 09:32:24 51°32.163 2°49.527 16.2075 4.280062 33.692422 3.28279
2009-06-24 09:33:24 51°32.234 2°49.733 16.2303 4.278712 33.669533 3.247966
2009-06-24 09:34:24 51°32.307 2°49.938 16.2479 4.27809 33.64686 3.247966
2009-06-24 09:35:24 51°32.379 2°50.147 16.2578 4.277259 33.626508 3.247966
2009-06-24 09:36:24 51°32.451 2°50.358 16.2621 4.276844 33.618055 3.247966
2009-06-24 09:37:24 51°32.522 2°50.564 16.2671 4.276221 33.606409 3.247966
2009-06-24 09:38:24 51°32.594 2°50.772 16.2646 4.275702 33.599793 3.247966
2009-06-24 09:39:24 51°32.667 2°50.987 16.2659 4.274768 33.590904 3.247966
2009-06-24 09:40:24 51°32.737 2°51.194 16.2682 4.273731 33.581789 3.247966
2009-06-24 09:41:24 51°32.808 2°51.404 16.2686 4.273004 33.574038 3.247966
2009-06-24 09:42:24 51°32.881 2°51.617 16.2799 4.271966 33.56287 3.247966
2009-06-24 09:43:24 51°32.956 2°51.83 16.2814 4.271136 33.549417 3.247966
2009-06-24 09:44:24 51°33.029 2°52.044 16.2913 4.270202 33.534376 3.247966
2009-06-24 09:45:24 51°33.104 2°52.258 16.3078 4.269268 33.518657 3.247966
2009-06-24 09:46:24 51°33.18 2°52.471 16.3197 4.268438 33.497027 3.213142
2009-06-24 09:47:24 51°33.255 2°52.685 16.3301 4.267504 33.4786 3.213142
2009-06-24 09:48:24 51°33.332 2°52.902 16.3428 4.266673 33.462458 3.213142
2009-06-24 09:49:24 51°33.406 2°53.116 16.3552 4.266258 33.4486 3.213142
2009-06-24 09:50:24 51°33.481 2°53.328 16.3711 4.265843 33.434752 3.213142
2009-06-24 09:51:24 51°33.555 2°53.538 16.3827 4.265635 33.42205 3.213142
2009-06-24 09:52:24 51°33.629 2°53.749 16.3893 4.265427 33.411395 3.213142
2009-06-24 09:53:24 51°33.702 2°53.961 16.3943 4.264908 33.400739 3.178318
2009-06-24 09:54:24 51°33.781 2°54.174 16.3941 4.264286 33.393931 3.143494
2009-06-24 09:55:24 51°33.857 2°54.387 16.3877 4.263352 33.386437 3.178318
2009-06-24 09:56:25 51°33.935 2°54.605 16.3859 4.262107 33.378254 3.143494
2009-06-24 09:57:24 51°34.011 2°54.817 16.386 4.261173 33.372117 3.143494
2009-06-24 09:58:24 51°34.089 2°55.037 16.3838 4.260758 33.367805 3.10867
2009-06-24 09:59:24 51°34.162 2°55.251 16.3852 4.260343 33.364851 3.10867
2009-06-24 10:00:24 51°34.236 2°55.468 16.3831 4.259927 33.361897 3.10867
2009-06-24 10:01:24 51°34.31 2°55.683 16.3821 4.259616 33.359851 3.10867
2009-06-24 10:02:24 51°34.381 2°55.905 16.3768 4.259201 33.358932 3.073846
2009-06-24 10:03:24 51°34.445 2°56.134 16.3776 4.258786 33.358014 3.073846
2009-06-24 10:04:24 51°34.507 2°56.365 16.3714 4.258682 33.357105 3.073846
2009-06-24 10:05:24 51°34.567 2°56.592 16.371 4.258267 33.356865 3.073846
2009-06-24 10:06:24 51°34.618 2°56.829 16.3719 4.257956 33.355497 3.073846
2009-06-24 10:07:25 51°34.667 2°57.072 16.367 4.257749 33.355716 3.039022
2009-06-24 10:08:24 51°34.713 2°57.304 16.3657 4.257541 33.355936 3.073846
2009-06-24 10:09:24 51°34.749 2°57.548 16.3696 4.257541 33.354578 3.073846
2009-06-24 10:10:24 51°34.785 2°57.796 16.3684 4.257437 33.35367 3.073846
2009-06-24 10:11:24 51°34.815 2°58.047 16.3631 4.25723 33.351853 3.039022
2009-06-24 10:12:24 51°34.838 2°58.299 16.3545 4.256711 33.354098 3.039022
2009-06-24 10:13:24 51°34.835 2°58.562 16.3466 4.256192 33.357023 3.039022
2009-06-24 10:14:24 51°34.8 2°58.829 16.341 4.255985 33.358601 3.039022
2009-06-24 10:15:24 51°34.738 2°59.094 16.3377 4.25557 33.361079 3.073846
2009-06-24 10:16:24 51°34.621 2°59.328 16.3284 4.255259 33.362428 3.073846
2009-06-24 10:17:24 51°34.445 2°59.477 16.3362 4.255051 33.361969 3.073846
2009-06-24 10:18:24 51°34.236 2°59.476 16.3395 4.254636 33.355614 3.073846
2009-06-24 10:19:24 51°34.032 2°59.364 16.3524 4.253702 33.342 3.073846
2009-06-24 10:20:24 51°33.838 2°59.208 16.3679 4.253598 33.329554 3.143494
2009-06-24 10:21:24 51°33.648 2°59.043 16.3923 4.253494 33.313051 3.10867
2009-06-24 10:22:24 51°33.452 2°58.893 16.4053 4.254946 33.311535 3.143494
2009-06-24 10:23:24 51°33.253 2°58.756 16.4251 4.255984 33.305038 3.143494
2009-06-24 10:24:24 51°33.054 2°58.617 16.4444 4.257748 33.304222 3.178318
2009-06-24 10:25:24 51°32.855 2°58.479 16.4683 4.259408 33.304531 3.178318
2009-06-24 10:26:24 51°32.655 2°58.34 16.4866 4.261587 33.305994 3.213142
2009-06-24 10:27:24 51°32.457 2°58.209 16.5081 4.263662 33.306553 3.247966
2009-06-24 10:28:24 51°32.258 2°58.078 16.5196 4.265737 33.308464 3.317614
2009-06-24 10:29:24 51°32.075 2°57.904 16.5246 4.267397 33.312827 3.352439
2009-06-24 10:30:24 51°31.92 2°57.682 16.5266 4.268331 33.319625 3.352439
2009-06-24 10:31:24 51°31.752 2°57.483 16.5142 4.268954 33.327757 3.387263
2009-06-24 10:32:24 51°31.585 2°57.283 16.514 4.269265 33.3352 3.387263
2009-06-24 10:33:24 51°31.42 2°57.077 16.5151 4.270095 33.341093 3.387263
2009-06-24 10:34:24 51°31.262 2°56.859 16.5116 4.270925 33.349013 3.387263
2009-06-24 10:35:24 51°31.172 2°56.568 16.509 4.27134 33.353311 3.387263
2009-06-24 10:36:24 51°31.138 2°56.248 16.5045 4.271341 33.358042 3.387263
2009-06-24 10:37:24 51°31.11 2°55.927 16.4916 4.271859 33.365276 3.387263
2009-06-24 10:38:24 51°31.08 2°55.614 16.4807 4.273727 33.391055 3.422087
2009-06-24 10:39:24 51°31.053 2°55.298 16.4733 4.274143 33.404839 3.422087
2009-06-24 10:40:24 51°31.023 2°54.985 16.459 4.275907 33.430419 3.422087
2009-06-24 10:41:24 51°30.996 2°54.67 16.4517 4.27653 33.442645 3.422087
2009-06-24 10:42:24 51°30.968 2°54.356 16.4418 4.277775 33.46032 3.422087
2009-06-24 10:43:24 51°30.939 2°54.042 16.4331 4.278294 33.471651 3.422087
2009-06-24 10:44:24 51°30.913 2°53.726 16.4378 4.278709 33.479359 3.387263
2009-06-24 10:45:24 51°30.887 2°53.411 16.4312 4.279021 33.482762 3.387263
2009-06-24 10:46:24 51°30.857 2°53.095 16.4351 4.279228 33.485937 3.387263
2009-06-24 10:47:24 51°30.83 2°52.78 16.4326 4.27954 33.48934 3.422087
2009-06-24 10:48:24 51°30.806 2°52.462 16.4407 4.279955 33.492971 3.422087
2009-06-24 10:49:24 51°30.781 2°52.145 16.4453 4.280162 33.492746 3.422087
2009-06-24 10:50:24 51°30.754 2°51.829 16.453 4.280681 33.490483 3.422087
2009-06-24 10:51:24 51°30.729 2°51.514 16.4574 4.281407 33.489357 3.387263
2009-06-24 10:52:24 51°30.704 2°51.199 16.4562 4.281511 33.488225 3.422087
2009-06-24 10:53:24 51°30.664 2°50.886 16.4499 4.2812 33.484144 3.422087
2009-06-24 10:54:24 51°30.566 2°50.6 16.4391 4.279747 33.482316 3.422087
2009-06-24 10:55:25 51°30.448 2°50.319 16.421 4.278917 33.479815 3.387263
2009-06-24 10:56:24 51°30.336 2°50.048 16.4134 4.277879 33.484338 3.387263
2009-06-24 10:57:25 51°30.224 2°49.766 16.3953 4.277879 33.492503 3.352439
2009-06-24 10:58:24 51°30.117 2°49.49 16.3903 4.277776 33.502488 3.352439
2009-06-24 10:59:24 51°30.008 2°49.21 16.3807 4.278191 33.517024 3.352439
2009-06-24 11:00:24 51°29.9 2°48.932 16.3644 4.279229 33.532249 3.352439
2009-06-24 11:01:24 51°29.796 2°48.648 16.3668 4.280059 33.549075 3.352439
2009-06-24 11:02:24 51°29.7 2°48.361 16.3623 4.281097 33.564315 3.352439
2009-06-24 11:03:24 51°29.599 2°48.077 16.3485 4.282239 33.577736 3.387263
2009-06-24 11:04:25 51°29.5 2°47.786 16.3406 4.28338 33.592528 3.352439
2009-06-24 11:05:24 51°29.405 2°47.503 16.3322 4.284418 33.6071 3.387263
2009-06-24 11:06:25 51°29.304 2°47.215 16.3267 4.286286 33.626219 3.422087
2009-06-24 11:07:24 51°29.21 2°46.931 16.3237 4.287843 33.65015 3.422087
2009-06-24 11:08:25 51°29.11 2°46.643 16.3034 4.289504 33.675009 3.456911
2009-06-24 11:09:24 51°29.016 2°46.36 16.2898 4.290749 33.698301 3.456911
2009-06-24 11:10:25 51°28.917 2°46.07 16.2745 4.291995 33.722988 3.456911
2009-06-24 11:11:25 51°28.825 2°45.787 16.2621 4.29324 33.736681 3.456911
2009-06-24 11:12:24 51°28.757 2°45.497 16.2575 4.293655 33.756857 3.456911
2009-06-24 11:13:25 51°28.695 2°45.19 16.2488 4.294589 33.769203 3.491735
2009-06-24 11:14:24 51°28.633 2°44.895 16.2336 4.295731 33.786138 3.491735
2009-06-24 11:15:24 51°28.565 2°44.603 16.2201 4.296977 33.807446 3.491735
2009-06-24 11:16:24 51°28.459 2°44.333 16.2041 4.298534 33.835657 3.456911
2009-06-24 11:17:24 51°28.334 2°44.09 16.1974 4.30009 33.85697 3.456911
2009-06-24 11:18:24 51°28.193 2°43.871 16.1924 4.30144 33.87716 3.456911
2009-06-24 11:19:24 51°28.048 2°43.655 16.1844 4.302581 33.889292 3.456911
2009-06-24 11:20:25 51°27.903 2°43.431 16.1868 4.303308 33.898464 3.456911
2009-06-24 11:21:24 51°27.767 2°43.212 16.1835 4.303723 33.909057 3.422087
2009-06-24 11:22:24 51°27.627 2°42.991 16.1814 4.304449 33.914763 3.422087
2009-06-24 11:23:24 51°27.471 2°42.799 16.1794 4.305487 33.923907 3.422087
2009-06-24 11:24:24 51°27.274 2°42.75 16.1775 4.305487 33.929461 3.456911
2009-06-24 11:25:24 51°27.075 2°42.776 16.1856 4.305799 33.933593 3.422087
2009-06-24 11:26:24 51°26.901 2°42.909 16.2016 4.306317 33.928445 3.387263
2009-06-24 11:27:24 51°26.794 2°43.15 16.2264 4.305383 33.906344 3.387263
2009-06-24 11:28:24 51°26.775 2°43.42 16.2865 4.30393 33.876925 3.387263
2009-06-24 11:29:24 51°26.816 2°43.68 16.3827 4.296145 33.733995 3.352439
2009-06-24 11:30:24 51°26.878 2°43.931 16.4285 4.292408 33.637452 3.317614
2009-06-24 11:31:24 51°26.941 2°44.19 16.4483 4.291059 33.593529 3.352439
2009-06-24 11:32:24 51°26.998 2°44.454 16.4548 4.291058 33.581251 3.352439
2009-06-24 11:33:24 51°27.051 2°44.726 16.4336 4.2922 33.58851 3.352439
2009-06-24 11:34:24 51°27.12 2°44.983 16.4029 4.29521 33.637377 3.387263
2009-06-24 11:35:24 51°27.201 2°45.226 16.4942 4.293446 33.624664 3.387263
2009-06-24 11:36:24 51°27.278 2°45.475 16.5546 4.286907 33.491909 3.387263
2009-06-24 11:37:24 51°27.356 2°45.734 16.5312 4.285245 33.440143 3.387263
2009-06-24 11:38:25 51°27.443 2°45.992 16.4666 4.28919 33.513885 3.387263
2009-06-24 11:39:24 51°27.526 2°46.243 16.4273 4.291162 33.572617 3.387263
2009-06-24 11:40:24 51°27.612 2°46.499 16.414 4.292408 33.611481 3.422087
2009-06-24 11:41:24 51°27.698 2°46.756 16.401 4.292512 33.623319 3.422087
2009-06-24 11:42:24 51°27.783 2°47.008 16.4092 4.292304 33.626286 3.422087
2009-06-24 11:43:24 51°27.866 2°47.259 16.4281 4.291889 33.615817 3.422087
2009-06-24 11:44:24 51°27.953 2°47.511 16.4345 4.291059 33.595576 3.387263
2009-06-24 11:45:25 51°28.037 2°47.772 16.4315 4.290125 33.581945 3.387263
2009-06-24 11:46:24 51°28.12 2°48.021 16.4305 4.289294 33.575362 3.422087
2009-06-24 11:47:25 51°28.206 2°48.285 16.4225 4.288257 33.56969 3.422087
2009-06-24 11:48:24 51°28.292 2°48.544 16.4226 4.287427 33.566516 3.422087
2009-06-24 11:49:25 51°28.379 2°48.812 16.4263 4.287115 33.565156 3.456911
2009-06-24 11:50:25 51°28.464 2°49.076 16.4254 4.286493 33.56107 3.422087
2009-06-24 11:51:24 51°28.549 2°49.337 16.4307 4.2867 33.558796 3.422087
2009-06-24 11:52:24 51°28.631 2°49.595 16.4385 4.2867 33.553343 3.422087
2009-06-24 11:53:24 51°28.716 2°49.859 16.4391 4.286077 33.545851 3.422087
2009-06-24 11:54:24 51°28.802 2°50.123 16.4447 4.285973 33.538813 3.422087
2009-06-24 11:55:24 51°28.888 2°50.388 16.4495 4.285455 33.531551 3.422087
2009-06-24 11:56:25 51°28.976 2°50.659 16.4509 4.284832 33.526786 3.422087
2009-06-24 11:57:24 51°29.061 2°50.924 16.453 4.284728 33.523156 3.422087
2009-06-24 11:58:24 51°29.147 2°51.195 16.4505 4.284936 33.522929 3.387263
2009-06-24 11:59:25 51°29.235 2°51.469 16.4553 4.284936 33.520208 3.387263
2009-06-24 12:00:25 51°29.324 2°51.742 16.4583 4.28452 33.515217 3.387263
2009-06-24 12:01:25 51°29.413 2°52.012 16.4615 4.284105 33.510908 3.387263
2009-06-24 12:02:24 51°29.499 2°52.278 16.468 4.284001 33.502521 3.352439
2009-06-24 12:03:25 51°29.59 2°52.557 16.4686 4.283171 33.493905 3.352439
2009-06-24 12:04:24 51°29.678 2°52.83 16.4691 4.282445 33.487556 3.352439
2009-06-24 12:05:24 51°29.766 2°53.102 16.4728 4.282133 33.481438 3.352439
2009-06-24 12:06:25 51°29.857 2°53.379 16.4716 4.28203 33.477814 3.387263
2009-06-24 12:07:24 51°29.945 2°53.649 16.4688 4.281511 33.477355 3.352439
2009-06-24 12:08:25 51°30.04 2°53.927 16.4739 4.281822 33.479396 3.352439
2009-06-24 12:09:24 51°30.129 2°54.198 16.4771 4.282964 33.483939 3.352439
2009-06-24 12:10:25 51°30.212 2°54.49 16.4825 4.283379 33.485528 3.352439
2009-06-24 12:11:25 51°30.286 2°54.782 16.481 4.283897 33.487346 3.317614
2009-06-24 12:12:24 51°30.36 2°55.069 16.4883 4.284001 33.488932 3.352439
2009-06-24 12:13:24 51°30.435 2°55.356 16.49 4.284416 33.489163 3.352439
2009-06-24 12:14:24 51°30.51 2°55.643 16.4974 4.284727 33.486451 3.352439
2009-06-24 12:15:25 51°30.588 2°55.933 16.5071 4.284727 33.480342 3.352439
2009-06-24 12:16:25 51°30.659 2°56.216 16.518 4.284416 33.470838 3.317614
2009-06-24 12:17:24 51°30.733 2°56.497 16.5286 4.283897 33.456816 3.352439
2009-06-24 12:18:24 51°30.809 2°56.783 16.5394 4.28317 33.443023 3.352439
2009-06-24 12:19:24 51°30.885 2°57.071 16.5511 4.28234 33.4263 3.317614
2009-06-24 12:20:24 51°30.962 2°57.358 16.5543 4.28151 33.410941 3.352439
2009-06-24 12:21:24 51°31.039 2°57.645 16.5609 4.280679 33.398292 3.317614
2009-06-24 12:22:25 51°31.118 2°57.938 16.5688 4.28016 33.387687 3.317614
2009-06-24 12:23:24 51°31.195 2°58.222 16.5792 4.279538 33.375507 3.352439
2009-06-24 12:24:24 51°31.272 2°58.508 16.5864 4.279019 33.363561 3.317614
2009-06-24 12:25:25 51°31.35 2°58.803 16.5944 4.278085 33.350028 3.317614
2009-06-24 12:26:25 51°31.43 2°59.092 16.6023 4.277358 33.337633 3.28279
2009-06-24 12:27:24 51°31.505 2°59.376 16.6069 4.276424 33.325457 3.317614
2009-06-24 12:28:25 51°31.583 2°59.67 16.6114 4.275698 33.314418 3.317614
2009-06-24 12:29:24 51°31.66 2°59.955 16.6083 4.274867 33.304497 3.28279
2009-06-24 12:30:25 51°31.737 3°0.248 16.6041 4.273518 33.293424 3.247966
2009-06-24 12:31:26 51°31.813 3°0.54 16.6008 4.271962 33.285252 3.213142
2009-06-24 12:32:25 51°31.888 3°0.825 16.5774 4.270509 33.277982 3.213142
2009-06-24 12:33:25 51°31.964 3°1.112 16.5562 4.268123 33.275358 3.178318
2009-06-24 12:34:25 51°32.039 3°1.403 16.5266 4.265321 33.275177 3.143494
2009-06-24 12:35:25 51°32.114 3°1.693 16.5026 4.263039 33.276157 3.143494
2009-06-24 12:36:24 51°32.189 3°1.978 16.4862 4.261379 33.277854 3.10867
2009-06-24 12:37:25 51°32.265 3°2.274 16.4751 4.260237 33.280035 3.10867
2009-06-24 12:38:24 51°32.269 3°2.579 16.4724 4.26003 33.284297 3.073846
2009-06-24 12:39:24 51°32.202 3°2.884 16.4643 4.2592 33.2838 3.073846
2009-06-24 12:40:25 51°32.072 3°3.134 16.4702 4.258473 33.277457 3.073846
2009-06-24 12:41:25 51°31.904 3°3.295 16.4811 4.257851 33.267297 3.073846
2009-06-24 12:42:25 51°31.725 3°3.294 16.4972 4.257539 33.254462 3.10867
2009-06-24 12:43:24 51°31.569 3°3.177 16.5258 4.257539 33.236268 3.10867
2009-06-24 12:44:25 51°31.449 3°2.977 16.5531 4.258991 33.22538 3.10867
2009-06-24 12:45:24 51°31.356 3°2.76 16.5786 4.260029 33.217615 3.143494
2009-06-24 12:46:25 51°31.267 3°2.528 16.5999 4.261274 33.205624 3.143494
2009-06-24 12:47:25 51°31.17 3°2.306 16.6223 4.261377 33.191766 3.178318
2009-06-24 12:48:25 51°31.065 3°2.093 16.6508 4.262415 33.179345 3.178318
2009-06-24 12:49:25 51°30.961 3°1.883 16.6683 4.263971 33.172124 3.213142
2009-06-24 12:50:25 51°30.858 3°1.673 16.6788 4.265423 33.173376 3.213142
2009-06-24 12:51:25 51°30.757 3°1.457 16.7028 4.266357 33.166778 3.247966
2009-06-24 12:52:24 51°30.662 3°1.245 16.7217 4.266876 33.153911 3.247966
2009-06-24 12:53:25 51°30.558 3°1.032 16.7341 4.266356 33.131387 3.247966
2009-06-24 12:54:24 51°30.46 3°0.822 16.7481 4.266875 33.122555 3.28279
2009-06-24 12:55:24 51°30.362 3°0.607 16.7439 4.266875 33.120556 3.28279
2009-06-24 12:56:25 51°30.261 3°0.384 16.7242 4.265526 33.116851 3.28279
2009-06-24 12:57:25 51°30.159 3°0.168 16.7213 4.263866 33.113111 3.28279
2009-06-24 12:58:24 51°30.06 2°59.961 16.6989 4.262621 33.102305 3.317614
2009-06-24 12:59:24 51°29.958 2°59.748 16.6982 4.260546 33.101626 3.317614
2009-06-24 13:00:25 51°29.855 2°59.53 16.7029 4.260442 33.098724 3.28279
2009-06-24 13:01:24 51°29.759 2°59.311 16.7072 4.260857 33.100327 3.28279
2009-06-24 13:02:25 51°29.662 2°59.084 16.7076 4.261998 33.100235 3.317614
2009-06-24 13:03:24 51°29.573 2°58.856 16.7048 4.261064 33.104796 3.28279
2009-06-24 13:04:24 51°29.475 2°58.631 16.7824 4.25847 33.063629 3.28279
2009-06-24 13:05:24 51°29.383 2°58.402 16.7636 4.256705 33.007137 3.28279
2009-06-24 13:06:25 51°29.291 2°58.174 16.7265 4.259092 33.041762 3.317614
2009-06-24 13:07:24 51°29.208 2°57.946 16.7021 4.259715 33.075098 3.28279
2009-06-24 13:08:25 51°29.118 2°57.715 16.7103 4.259404 33.085052 3.317614
2009-06-24 13:09:25 51°29.032 2°57.485 16.6947 4.259819 33.089987 3.317614
2009-06-24 13:10:24 51°28.95 2°57.259 16.6834 4.259819 33.104657 3.352439
2009-06-24 13:11:25 51°28.862 2°57.03 16.6588 4.260027 33.115134 3.352439
2009-06-24 13:12:25 51°28.776 2°56.804 16.6696 4.259301 33.120843 3.387263
2009-06-24 13:13:25 51°28.692 2°56.572 16.6592 4.259716 33.119107 3.387263
2009-06-24 13:14:25 51°28.606 2°56.337 16.669 4.258367 33.113397 3.387263
2009-06-24 13:15:25 51°28.523 2°56.104 16.6812 4.258056 33.106019 3.352439
2009-06-24 13:16:25 51°28.441 2°55.863 16.6907 4.257848 33.092873 3.352439
2009-06-24 13:17:25 51°28.357 2°55.626 16.7087 4.257225 33.076799 3.387263
2009-06-24 13:18:25 51°28.272 2°55.388 16.7321 4.257329 33.060383 3.456911
2009-06-24 13:19:25 51°28.185 2°55.154 16.7502 4.257017 33.039721 3.422087
2009-06-24 13:20:25 51°28.1 2°54.918 16.767 4.255668 33.019386 3.456911
2009-06-24 13:21:24 51°28.016 2°54.691 16.7864 4.255252 32.996541 3.422087
2009-06-24 13:22:25 51°27.931 2°54.456 16.7964 4.254526 32.976329 3.422087
2009-06-24 13:23:24 51°27.849 2°54.231 16.787 4.254007 32.962565 3.456911
2009-06-24 13:24:24 51°27.762 2°53.996 16.7839 4.252243 32.95921 3.491735
2009-06-24 13:25:24 51°27.679 2°53.759 16.7756 4.251517 32.957556 3.526559
2009-06-24 13:26:25 51°27.593 2°53.524 16.787 4.250375 32.950982 3.526559
2009-06-24 13:27:25 51°27.508 2°53.292 16.8026 4.249753 32.936322 3.526559
2009-06-24 13:28:24 51°27.426 2°53.066 16.82 4.250063 32.915212 3.526559
2009-06-24 13:29:25 51°27.339 2°52.833 16.8358 4.249752 32.905253 3.491735
2009-06-24 13:30:25 51°27.257 2°52.603 16.8366 4.250167 32.90356 3.491735
2009-06-24 13:31:25 51°27.17 2°52.382 16.8387 4.25162 32.908861 3.491735
2009-06-24 13:32:25 51°27.086 2°52.16 16.814 4.25162 32.920749 3.526559
2009-06-24 13:33:25 51°27.004 2°51.937 16.7944 4.251309 32.927968 3.561383
2009-06-24 13:34:25 51°26.921 2°51.715 16.8046 4.251101 32.944693 3.596207
2009-06-24 13:35:24 51°26.838 2°51.493 16.8006 4.252865 32.956655 3.561383
2009-06-24 13:36:25 51°26.752 2°51.263 16.797 4.254733 32.970177 3.526559
2009-06-24 13:37:24 51°26.664 2°51.05 16.8011 4.256393 32.983226 3.526559
2009-06-24 13:38:25 51°26.569 2°50.827 16.7856 4.256809 32.996098 3.526559
2009-06-24 13:39:25 51°26.481 2°50.609 16.7894 4.257743 33.006175 3.526559
2009-06-24 13:40:24 51°26.392 2°50.395 16.7795 4.259299 33.01833 3.526559
2009-06-24 13:41:25 51°26.3 2°50.18 16.7674 4.259818 33.034772 3.526559
2009-06-24 13:42:25 51°26.213 2°49.964 16.7647 4.260545 33.045051 3.526559
2009-06-24 13:43:25 51°26.124 2°49.752 16.7682 4.261894 33.054748 3.491735
2009-06-24 13:44:25 51°26.036 2°49.538 16.7685 4.262516 33.063467 3.526559
2009-06-24 13:45:25 51°25.948 2°49.325 16.776 4.26345 33.068902 3.491735
2009-06-24 13:46:25 51°25.861 2°49.113 16.774 4.264488 33.073241 3.526559
2009-06-24 13:47:25 51°25.776 2°48.899 16.7588 4.265111 33.081296 3.596207
2009-06-24 13:48:24 51°25.692 2°48.688 16.7667 4.265733 33.094676 3.596207
2009-06-24 13:49:25 51°25.606 2°48.471 16.7647 4.266978 33.103474 3.596207
2009-06-24 13:50:25 51°25.525 2°48.256 16.7765 4.268224 33.110274 3.596207
2009-06-24 13:51:24 51°25.441 2°48.049 16.7847 4.270195 33.122038 3.596207
2009-06-24 13:52:25 51°25.359 2°47.834 16.7763 4.273308 33.147024 3.561383
2009-06-24 13:53:25 51°25.28 2°47.624 16.7784 4.276422 33.174677 3.561383
2009-06-24 13:54:24 51°25.2 2°47.412 16.7852 4.278912 33.1936 3.526559
2009-06-24 13:55:24 51°25.114 2°47.199 16.7961 4.282025 33.213915 3.526559
2009-06-24 13:56:25 51°25.025 2°46.985 16.8017 4.285242 33.231788 3.526559
2009-06-24 13:57:25 51°24.936 2°46.777 16.794 4.287836 33.25561 3.526559
2009-06-24 13:58:25 51°24.849 2°46.561 16.7811 4.289912 33.279618 3.526559
2009-06-24 13:59:24 51°24.761 2°46.351 16.7714 4.29178 33.306523 3.561383
2009-06-24 14:00:24 51°24.674 2°46.135 16.779 4.293129 33.325594 3.526559
2009-06-24 14:01:25 51°24.587 2°45.914 16.7748 4.293544 33.323836 3.526559
2009-06-24 14:02:24 51°24.503 2°45.705 16.7676 4.293648 33.328086 3.526559
2009-06-24 14:03:25 51°24.372 2°45.573 16.7512 4.293129 33.331626 3.526559
2009-06-24 14:04:24 51°24.211 2°45.587 16.7839 4.293337 33.33812 3.456911
2009-06-24 14:05:25 51°24.04 2°45.651 16.8111 4.29178 33.301168 3.422087
2009-06-24 14:06:24 51°23.875 2°45.7 16.827 4.290742 33.271442 3.387263
2009-06-24 14:07:25 51°23.703 2°45.754 16.8653 4.287836 33.230913 3.387263
2009-06-24 14:08:24 51°23.534 2°45.813 16.8991 4.283373 33.158994 3.387263
2009-06-24 14:09:24 51°23.363 2°45.872 16.9227 4.280259 33.10751 3.422087
2009-06-24 14:10:25 51°23.191 2°45.927 16.9196 4.276938 33.065565 3.422087
2009-06-24 14:11:24 51°23.023 2°45.986 16.9261 4.271854 33.022963 3.491735
2009-06-24 14:12:24 51°22.856 2°46.069 16.9222 4.267495 32.98334 3.561383
2009-06-24 14:13:25 51°22.713 2°46.25 16.917 4.264382 32.960416 3.561383
2009-06-24 14:14:24 51°22.588 2°46.468 16.923 4.261684 32.9358 3.596207
2009-06-24 14:15:25 51°22.464 2°46.697 16.9487 4.26158 32.928313 3.596207
2009-06-24 14:16:25 51°22.337 2°46.913 17.0713 4.253589 32.808801 3.596207
2009-06-24 14:17:24 51°22.202 2°47.109 17.1393 4.247051 32.673532 3.561383
2009-06-24 14:18:25 51°22.058 2°47.301 17.2138 4.242276 32.580618 3.526559
2009-06-24 14:19:24 51°21.913 2°47.468 17.306 4.235634 32.463664 3.526559
2009-06-24 14:20:25 51°21.755 2°47.625 17.4062 4.225672 32.299012 3.491735
2009-06-24 14:21:25 51°21.602 2°47.783 17.4671 4.216229 32.149171 3.526559
2009-06-24 14:22:24 51°21.445 2°47.935 17.5126 4.208965 32.041233 3.526559
2009-06-24 14:23:25 51°21.285 2°48.101 17.5287 4.205333 31.981417 3.526559
2009-06-24 14:24:25 51°21.126 2°48.259 17.5248 4.204814 31.966956 3.456911
2009-06-24 14:25:24 51°20.969 2°48.416 17.5123 4.207304 31.996264 3.491735
2009-06-24 14:26:25 51°20.805 2°48.578 17.4931 4.208757 32.014261 3.456911
2009-06-24 14:27:25 51°20.647 2°48.734 17.4546 4.212285 32.06503 3.456911
2009-06-24 14:28:25 51°20.498 2°48.9 17.48 4.21436 32.102887 3.456911
2009-06-24 14:29:24 51°20.351 2°49.062 17.5159 4.209794 32.036934 3.456911
2009-06-24 14:30:25 51°20.201 2°49.231 17.5213 4.205125 31.97714 3.456911
2009-06-24 14:31:24 51°20.055 2°49.394 17.4835 4.202427 31.956129 3.456911
2009-06-24 14:32:25 51°19.9 2°49.562 17.4674 4.197136 31.935715 3.526559
2009-06-24 14:33:25 51°19.748 2°49.73 17.5132 4.193816 31.911918 3.596207
2009-06-24 14:34:25 51°19.592 2°49.893 17.5447 4.193297 31.872382 3.596207
2009-06-24 14:35:25 51°19.439 2°50.066 17.5667 4.193504 31.852228 3.631031
2009-06-24 14:36:24 51°19.285 2°50.228 17.5846 4.193607 31.836849 3.596207
2009-06-24 14:37:25 51°19.127 2°50.395 17.5735 4.1934 31.826969 3.561383
2009-06-24 14:38:24 51°18.974 2°50.554 17.5406 4.193711 31.841479 3.526559
2009-06-24 14:39:25 51°18.813 2°50.713 17.5054 4.192882 31.86072 3.526559
2009-06-24 14:40:24 51°18.662 2°50.877 17.4796 4.191637 31.875848 3.526559
2009-06-24 14:41:25 51°18.511 2°51.053 17.4762 4.190704 31.883604 3.526559
2009-06-24 14:42:25 51°18.363 2°51.222 17.5851 4.189873 31.866521 3.561383
2009-06-24 14:43:24 51°18.216 2°51.394 17.6838 4.18375 31.724091 3.665855
2009-06-24 14:44:25 51°18.059 2°51.56 17.758 4.185513 31.667006 3.839975
2009-06-24 14:45:25 51°17.905 2°51.714 17.7856 4.19983 31.741369 3.874799
2009-06-24 14:46:25 51°17.748 2°51.858 17.797 4.216535 31.864892 3.944447
2009-06-24 14:47:24 51°17.593 2°51.994 17.8222 4.225977 31.93147 3.979271
2009-06-24 14:48:25 51°17.431 2°52.133 17.8524 4.227533 31.924055 3.944447
2009-06-24 14:49:25 51°17.272 2°52.265 17.8808 4.228051 31.906048 3.944447
2009-06-24 14:50:25 51°17.114 2°52.403 17.8862 4.226806 31.875081 3.909623
2009-06-24 14:51:25 51°16.956 2°52.54 17.8901 4.221203 31.82792 3.874799
2009-06-24 14:52:25 51°16.799 2°52.681 17.9341 4.226598 31.864655 3.909623
2009-06-24 14:53:26 51°16.64 2°52.825 17.9691 4.231163 31.865281 3.979271
2009-06-24 14:54:24 51°16.486 2°52.966 17.9945 4.231993 31.846903 4.014096
2009-06-24 14:55:25 51°16.322 2°53.108 18.0187 4.226597 31.786783 4.04892
2009-06-24 14:56:25 51°16.165 2°53.256 18.025 4.219541 31.709117 4.04892
2009-06-24 14:57:24 51°16.006 2°53.393 18.0157 4.209787 31.626103 4.083744
2009-06-24 14:58:25 51°15.84 2°53.529 17.9815 4.192772 31.495697 4.257864
2009-06-24 14:59:25 51°15.679 2°53.67 17.958 4.170984 31.336846 4.466808
2009-06-24 15:00:25 51°15.515 2°53.807 17.9682 4.154074 31.210905 4.780225
2009-06-24 15:01:25 51°15.35 2°53.944 17.9717 4.144322 31.121955 4.884697
2009-06-24 15:02:24 51°15.187 2°54.075 18.0128 4.137474 31.047156 4.884697
2009-06-24 15:03:25 51°15.018 2°54.209 18.0573 4.137681 31.024233 4.815049
2009-06-24 15:04:25 51°14.858 2°54.347 18.1085 4.153138 31.113739 4.710577
2009-06-24 15:05:24 51°14.703 2°54.489 18.1377 4.178245 31.293951 4.710577
2009-06-24 15:06:25 51°14.547 2°54.678 18.1507 4.184158 31.320977 4.745401
2009-06-24 15:07:25 51°14.415 2°54.906 18.179 4.174924 31.234837 4.954345
2009-06-24 15:08:24 51°14.309 2°55.147 18.2303 4.16735 31.151204 5.441882
2009-06-24 15:09:25 51°14.199 2°55.337 18.4471 4.100643 30.50936 8.227806
2009-06-24 15:10:23 51°14.093 2°55.434 18.652 0.183206 1.071949 5.198113
2009-06-24 15:11:25 51°13.995 2°55.502 18.7249 0.136169 0.78542 5.128465
2009-06-24 15:12:25 51°13.918 2°55.557 18.7823 0.129273 0.744003 5.128465
2009-06-24 15:13:23 51°13.854 2°55.606 18.8426 0.123407 0.708761 5.128465
2009-06-24 15:14:25 51°13.776 2°55.683 18.9139 0.115791 0.663148 5.093641
2009-06-24 15:15:23 51°13.715 2°55.787 18.9928 0.113321 0.648349 5.093641
2009-06-24 15:16:25 51°13.676 2°55.875 19.0676 0.110439 0.631106 5.058817
2009-06-24 15:17:25 51°13.663 2°55.944 19.1691 0.115173 0.659275 5.058817
2009-06-24 15:18:23 51°13.66 2°55.956 19.2305 0.109307 0.624212 5.093641